sensor_id;sensor_type;location;lat;lon;timestamp;P1;durP1;ratioP1;P2;durP2;ratioP2
22066;SDS011;72821;49.814;19.034;2023-10-09T00:03:42;15.68;;;7.20;;
22066;SDS011;72821;49.814;19.034;2023-10-09T00:08:53;17.13;;;7.13;;
22066;SDS011;72821;49.814;19.034;2023-10-09T00:13:56;14.98;;;7.35;;
22066;SDS011;72821;49.814;19.034;2023-10-09T00:19:02;13.70;;;7.68;;
22066;SDS011;72821;49.814;19.034;2023-10-09T00:24:15;17.63;;;7.82;;
22066;SDS011;72821;49.814;19.034;2023-10-09T00:29:25;16.65;;;8.00;;
22066;SDS011;72821;49.814;19.034;2023-10-09T00:34:34;15.13;;;7.63;;
22066;SDS011;72821;49.814;19.034;2023-10-09T00:39:44;13.07;;;5.57;;
22066;SDS011;72821;49.814;19.034;2023-10-09T00:44:50;14.80;;;7.13;;
22066;SDS011;72821;49.814;19.034;2023-10-09T00:49:56;16.13;;;6.60;;
22066;SDS011;72821;49.814;19.034;2023-10-09T00:55:03;13.43;;;7.03;;
22066;SDS011;72821;49.814;19.034;2023-10-09T01:00:16;13.15;;;6.22;;
22066;SDS011;72821;49.814;19.034;2023-10-09T01:05:35;14.70;;;6.28;;
22066;SDS011;72821;49.814;19.034;2023-10-09T01:10:47;14.65;;;5.47;;
22066;SDS011;72821;49.814;19.034;2023-10-09T01:15:57;10.32;;;5.10;;
22066;SDS011;72821;49.814;19.034;2023-10-09T01:21:02;9.85;;;4.43;;
22066;SDS011;72821;49.814;19.034;2023-10-09T01:26:05;11.15;;;5.45;;
22066;SDS011;72821;49.814;19.034;2023-10-09T01:31:07;12.00;;;5.55;;
22066;SDS011;72821;49.814;19.034;2023-10-09T01:36:10;11.85;;;5.30;;
22066;SDS011;72821;49.814;19.034;2023-10-09T01:41:16;12.60;;;6.75;;
22066;SDS011;72821;49.814;19.034;2023-10-09T01:46:21;13.10;;;7.05;;
22066;SDS011;72821;49.814;19.034;2023-10-09T01:51:24;12.40;;;6.70;;
22066;SDS011;72821;49.814;19.034;2023-10-09T01:56:26;13.90;;;7.22;;
22066;SDS011;72821;49.814;19.034;2023-10-09T02:01:29;14.38;;;6.10;;
22066;SDS011;72821;49.814;19.034;2023-10-09T02:06:35;14.73;;;6.55;;
22066;SDS011;72821;49.814;19.034;2023-10-09T02:11:39;14.00;;;6.20;;
22066;SDS011;72821;49.814;19.034;2023-10-09T02:16:42;11.25;;;5.60;;
22066;SDS011;72821;49.814;19.034;2023-10-09T02:21:46;14.35;;;6.72;;
22066;SDS011;72821;49.814;19.034;2023-10-09T02:26:49;13.05;;;6.30;;
22066;SDS011;72821;49.814;19.034;2023-10-09T02:32:08;11.52;;;5.90;;
22066;SDS011;72821;49.814;19.034;2023-10-09T02:37:18;13.30;;;6.78;;
22066;SDS011;72821;49.814;19.034;2023-10-09T02:42:25;12.77;;;5.22;;
22066;SDS011;72821;49.814;19.034;2023-10-09T02:47:28;8.25;;;4.18;;
22066;SDS011;72821;49.814;19.034;2023-10-09T02:52:39;11.80;;;3.45;;
22066;SDS011;72821;49.814;19.034;2023-10-09T02:57:44;6.72;;;3.15;;
22066;SDS011;72821;49.814;19.034;2023-10-09T03:02:47;6.18;;;2.70;;
22066;SDS011;72821;49.814;19.034;2023-10-09T03:07:52;8.27;;;3.30;;
22066;SDS011;72821;49.814;19.034;2023-10-09T03:12:55;5.90;;;2.80;;
22066;SDS011;72821;49.814;19.034;2023-10-09T03:17:57;6.60;;;2.75;;
22066;SDS011;72821;49.814;19.034;2023-10-09T03:23:01;6.75;;;3.00;;
22066;SDS011;72821;49.814;19.034;2023-10-09T03:28:03;7.68;;;3.60;;
22066;SDS011;72821;49.814;19.034;2023-10-09T03:33:05;5.72;;;3.20;;
22066;SDS011;72821;49.814;19.034;2023-10-09T03:38:08;6.55;;;2.80;;
22066;SDS011;72821;49.814;19.034;2023-10-09T03:43:31;6.85;;;3.10;;
22066;SDS011;72821;49.814;19.034;2023-10-09T03:48:42;5.65;;;2.88;;
22066;SDS011;72821;49.814;19.034;2023-10-09T03:53:48;7.22;;;3.40;;
22066;SDS011;72821;49.814;19.034;2023-10-09T03:58:52;5.90;;;3.00;;
22066;SDS011;72821;49.814;19.034;2023-10-09T04:03:55;6.65;;;3.08;;
22066;SDS011;72821;49.814;19.034;2023-10-09T04:09:05;7.67;;;3.03;;
22066;SDS011;72821;49.814;19.034;2023-10-09T04:14:20;5.57;;;3.22;;
22066;SDS011;72821;49.814;19.034;2023-10-09T04:19:28;6.53;;;3.20;;
22066;SDS011;72821;49.814;19.034;2023-10-09T04:24:30;7.55;;;3.60;;
22066;SDS011;72821;49.814;19.034;2023-10-09T04:29:42;7.00;;;3.35;;
22066;SDS011;72821;49.814;19.034;2023-10-09T04:34:51;6.13;;;3.13;;
22066;SDS011;72821;49.814;19.034;2023-10-09T04:40:19;6.25;;;3.50;;
22066;SDS011;72821;49.814;19.034;2023-10-09T04:45:39;6.78;;;3.25;;
22066;SDS011;72821;49.814;19.034;2023-10-09T04:50:49;6.38;;;2.92;;
22066;SDS011;72821;49.814;19.034;2023-10-09T04:56:10;5.93;;;2.65;;
22066;SDS011;72821;49.814;19.034;2023-10-09T05:01:18;5.15;;;2.50;;
22066;SDS011;72821;49.814;19.034;2023-10-09T05:06:38;5.15;;;2.28;;
22066;SDS011;72821;49.814;19.034;2023-10-09T05:11:57;6.43;;;2.45;;
22066;SDS011;72821;49.814;19.034;2023-10-09T05:17:11;5.80;;;2.60;;
22066;SDS011;72821;49.814;19.034;2023-10-09T05:22:17;7.07;;;3.47;;
22066;SDS011;72821;49.814;19.034;2023-10-09T05:27:38;4.45;;;2.08;;
22066;SDS011;72821;49.814;19.034;2023-10-09T05:32:53;4.45;;;2.22;;
22066;SDS011;72821;49.814;19.034;2023-10-09T05:38:25;5.72;;;2.42;;
22066;SDS011;72821;49.814;19.034;2023-10-09T05:43:27;5.25;;;2.33;;
22066;SDS011;72821;49.814;19.034;2023-10-09T05:48:48;8.02;;;3.08;;
22066;SDS011;72821;49.814;19.034;2023-10-09T05:53:56;6.25;;;2.70;;
22066;SDS011;72821;49.814;19.034;2023-10-09T05:59:13;6.07;;;2.65;;
22066;SDS011;72821;49.814;19.034;2023-10-09T06:04:34;6.60;;;1.85;;
22066;SDS011;72821;49.814;19.034;2023-10-09T06:09:56;5.78;;;2.38;;
22066;SDS011;72821;49.814;19.034;2023-10-09T06:15:00;4.78;;;2.20;;
22066;SDS011;72821;49.814;19.034;2023-10-09T06:20:21;6.30;;;2.30;;
22066;SDS011;72821;49.814;19.034;2023-10-09T06:26:03;5.47;;;2.80;;
22066;SDS011;72821;49.814;19.034;2023-10-09T06:31:25;7.18;;;3.05;;
22066;SDS011;72821;49.814;19.034;2023-10-09T06:36:50;6.95;;;3.25;;
22066;SDS011;72821;49.814;19.034;2023-10-09T06:41:55;6.15;;;2.75;;
22066;SDS011;72821;49.814;19.034;2023-10-09T06:47:11;4.72;;;2.72;;
22066;SDS011;72821;49.814;19.034;2023-10-09T06:52:14;5.18;;;2.33;;
22066;SDS011;72821;49.814;19.034;2023-10-09T06:57:39;5.65;;;2.42;;
22066;SDS011;72821;49.814;19.034;2023-10-09T07:02:50;7.03;;;2.40;;
22066;SDS011;72821;49.814;19.034;2023-10-09T07:07:55;4.28;;;2.10;;
22066;SDS011;72821;49.814;19.034;2023-10-09T07:13:17;6.00;;;2.42;;
22066;SDS011;72821;49.814;19.034;2023-10-09T07:18:20;5.78;;;2.65;;
22066;SDS011;72821;49.814;19.034;2023-10-09T07:23:25;5.93;;;2.28;;
22066;SDS011;72821;49.814;19.034;2023-10-09T07:28:34;7.82;;;2.60;;
22066;SDS011;72821;49.814;19.034;2023-10-09T07:33:44;4.82;;;1.98;;
22066;SDS011;72821;49.814;19.034;2023-10-09T07:38:58;5.15;;;2.38;;
22066;SDS011;72821;49.814;19.034;2023-10-09T07:44:03;4.50;;;2.00;;
22066;SDS011;72821;49.814;19.034;2023-10-09T07:49:20;5.10;;;2.10;;
22066;SDS011;72821;49.814;19.034;2023-10-09T07:54:30;5.55;;;2.60;;
22066;SDS011;72821;49.814;19.034;2023-10-09T07:59:38;4.90;;;2.28;;
22066;SDS011;72821;49.814;19.034;2023-10-09T08:04:43;5.53;;;2.10;;
22066;SDS011;72821;49.814;19.034;2023-10-09T08:09:51;5.53;;;2.13;;
22066;SDS011;72821;49.814;19.034;2023-10-09T08:15:15;5.70;;;1.98;;
22066;SDS011;72821;49.814;19.034;2023-10-09T08:20:25;5.10;;;2.27;;
22066;SDS011;72821;49.814;19.034;2023-10-09T08:25:28;4.55;;;1.80;;
22066;SDS011;72821;49.814;19.034;2023-10-09T08:30:33;4.05;;;2.45;;
22066;SDS011;72821;49.814;19.034;2023-10-09T08:36:08;4.55;;;2.22;;
22066;SDS011;72821;49.814;19.034;2023-10-09T08:41:16;4.60;;;1.95;;
22066;SDS011;72821;49.814;19.034;2023-10-09T08:46:28;6.38;;;2.38;;
22066;SDS011;72821;49.814;19.034;2023-10-09T08:51:31;4.85;;;2.00;;
22066;SDS011;72821;49.814;19.034;2023-10-09T08:56:37;5.05;;;2.55;;
22066;SDS011;72821;49.814;19.034;2023-10-09T09:01:41;4.95;;;2.40;;
22066;SDS011;72821;49.814;19.034;2023-10-09T09:06:43;4.25;;;2.58;;
22066;SDS011;72821;49.814;19.034;2023-10-09T09:11:45;3.42;;;1.50;;
22066;SDS011;72821;49.814;19.034;2023-10-09T09:16:50;5.50;;;2.67;;
22066;SDS011;72821;49.814;19.034;2023-10-09T09:21:56;5.55;;;2.40;;
22066;SDS011;72821;49.814;19.034;2023-10-09T09:27:13;4.72;;;2.22;;
22066;SDS011;72821;49.814;19.034;2023-10-09T09:32:27;5.65;;;2.58;;
22066;SDS011;72821;49.814;19.034;2023-10-09T09:37:40;4.60;;;2.58;;
22066;SDS011;72821;49.814;19.034;2023-10-09T09:42:45;5.78;;;2.50;;
22066;SDS011;72821;49.814;19.034;2023-10-09T09:47:51;6.88;;;2.78;;
22066;SDS011;72821;49.814;19.034;2023-10-09T09:52:55;6.80;;;2.67;;
22066;SDS011;72821;49.814;19.034;2023-10-09T09:57:58;5.93;;;2.75;;
22066;SDS011;72821;49.814;19.034;2023-10-09T10:03:01;6.32;;;3.10;;
22066;SDS011;72821;49.814;19.034;2023-10-09T10:08:08;7.43;;;3.13;;
22066;SDS011;72821;49.814;19.034;2023-10-09T10:13:15;6.63;;;3.10;;
22066;SDS011;72821;49.814;19.034;2023-10-09T10:18:32;7.00;;;3.15;;
22066;SDS011;72821;49.814;19.034;2023-10-09T10:23:37;6.85;;;2.80;;
22066;SDS011;72821;49.814;19.034;2023-10-09T10:28:39;5.53;;;2.97;;
22066;SDS011;72821;49.814;19.034;2023-10-09T10:39:03;5.10;;;2.63;;
22066;SDS011;72821;49.814;19.034;2023-10-09T10:44:13;8.43;;;3.83;;
22066;SDS011;72821;49.814;19.034;2023-10-09T10:49:34;8.20;;;3.80;;
22066;SDS011;72821;49.814;19.034;2023-10-09T10:54:40;6.18;;;2.85;;
22066;SDS011;72821;49.814;19.034;2023-10-09T10:59:42;5.97;;;2.55;;
22066;SDS011;72821;49.814;19.034;2023-10-09T11:04:45;5.90;;;2.83;;
22066;SDS011;72821;49.814;19.034;2023-10-09T11:09:55;5.97;;;2.97;;
22066;SDS011;72821;49.814;19.034;2023-10-09T11:15:08;5.18;;;2.78;;
22066;SDS011;72821;49.814;19.034;2023-10-09T11:20:24;6.18;;;3.33;;
22066;SDS011;72821;49.814;19.034;2023-10-09T11:25:27;6.85;;;3.75;;
22066;SDS011;72821;49.814;19.034;2023-10-09T11:30:32;9.07;;;3.80;;
22066;SDS011;72821;49.814;19.034;2023-10-09T11:35:34;7.78;;;3.72;;
22066;SDS011;72821;49.814;19.034;2023-10-09T11:40:37;7.57;;;4.32;;
22066;SDS011;72821;49.814;19.034;2023-10-09T11:45:52;6.30;;;3.85;;
22066;SDS011;72821;49.814;19.034;2023-10-09T11:50:57;6.15;;;3.72;;
22066;SDS011;72821;49.814;19.034;2023-10-09T11:56:06;5.82;;;3.58;;
22066;SDS011;72821;49.814;19.034;2023-10-09T12:01:12;6.63;;;3.83;;
22066;SDS011;72821;49.814;19.034;2023-10-09T12:06:20;7.30;;;3.97;;
22066;SDS011;72821;49.814;19.034;2023-10-09T12:11:25;6.45;;;3.22;;
22066;SDS011;72821;49.814;19.034;2023-10-09T12:16:31;5.13;;;3.20;;
22066;SDS011;72821;49.814;19.034;2023-10-09T12:21:35;6.63;;;3.35;;
22066;SDS011;72821;49.814;19.034;2023-10-09T12:26:38;7.10;;;3.67;;
22066;SDS011;72821;49.814;19.034;2023-10-09T12:31:42;5.97;;;3.45;;
22066;SDS011;72821;49.814;19.034;2023-10-09T12:36:47;5.05;;;3.67;;
22066;SDS011;72821;49.814;19.034;2023-10-09T12:41:51;5.38;;;3.67;;
22066;SDS011;72821;49.814;19.034;2023-10-09T12:46:55;6.60;;;3.30;;
22066;SDS011;72821;49.814;19.034;2023-10-09T12:51:58;8.07;;;3.58;;
22066;SDS011;72821;49.814;19.034;2023-10-09T12:57:01;8.15;;;4.25;;
22066;SDS011;72821;49.814;19.034;2023-10-09T13:02:03;7.55;;;4.60;;
22066;SDS011;72821;49.814;19.034;2023-10-09T13:07:07;9.57;;;5.00;;
22066;SDS011;72821;49.814;19.034;2023-10-09T13:12:09;7.45;;;5.18;;
22066;SDS011;72821;49.814;19.034;2023-10-09T13:17:20;10.65;;;5.90;;
22066;SDS011;72821;49.814;19.034;2023-10-09T13:22:24;8.63;;;6.55;;
22066;SDS011;72821;49.814;19.034;2023-10-09T13:27:26;9.82;;;6.57;;
22066;SDS011;72821;49.814;19.034;2023-10-09T13:32:35;10.23;;;6.10;;
22066;SDS011;72821;49.814;19.034;2023-10-09T13:37:38;9.25;;;5.97;;
22066;SDS011;72821;49.814;19.034;2023-10-09T13:42:40;9.93;;;5.80;;
22066;SDS011;72821;49.814;19.034;2023-10-09T13:47:43;8.52;;;5.78;;
22066;SDS011;72821;49.814;19.034;2023-10-09T13:52:46;9.48;;;6.30;;
22066;SDS011;72821;49.814;19.034;2023-10-09T13:57:48;9.80;;;6.38;;
22066;SDS011;72821;49.814;19.034;2023-10-09T14:02:50;10.45;;;6.45;;
22066;SDS011;72821;49.814;19.034;2023-10-09T14:07:53;10.50;;;5.90;;
22066;SDS011;72821;49.814;19.034;2023-10-09T14:12:56;9.95;;;6.57;;
22066;SDS011;72821;49.814;19.034;2023-10-09T14:17:58;8.82;;;6.05;;
22066;SDS011;72821;49.814;19.034;2023-10-09T14:23:04;9.10;;;5.90;;
22066;SDS011;72821;49.814;19.034;2023-10-09T14:28:10;8.55;;;6.40;;
22066;SDS011;72821;49.814;19.034;2023-10-09T14:33:13;9.93;;;6.65;;
22066;SDS011;72821;49.814;19.034;2023-10-09T14:38:16;8.77;;;6.07;;
22066;SDS011;72821;49.814;19.034;2023-10-09T14:43:20;10.75;;;6.45;;
22066;SDS011;72821;49.814;19.034;2023-10-09T14:48:25;12.48;;;7.32;;
22066;SDS011;72821;49.814;19.034;2023-10-09T14:53:28;11.00;;;7.40;;
22066;SDS011;72821;49.814;19.034;2023-10-09T14:58:30;13.15;;;8.52;;
22066;SDS011;72821;49.814;19.034;2023-10-09T15:03:34;11.10;;;7.80;;
22066;SDS011;72821;49.814;19.034;2023-10-09T15:08:39;12.07;;;7.70;;
22066;SDS011;72821;49.814;19.034;2023-10-09T15:13:42;11.38;;;7.93;;
22066;SDS011;72821;49.814;19.034;2023-10-09T15:18:44;9.90;;;7.40;;
22066;SDS011;72821;49.814;19.034;2023-10-09T15:23:46;10.75;;;7.50;;
22066;SDS011;72821;49.814;19.034;2023-10-09T15:28:48;10.43;;;7.93;;
22066;SDS011;72821;49.814;19.034;2023-10-09T15:33:51;10.95;;;7.60;;
22066;SDS011;72821;49.814;19.034;2023-10-09T15:38:55;10.13;;;7.68;;
22066;SDS011;72821;49.814;19.034;2023-10-09T15:44:01;12.48;;;8.45;;
22066;SDS011;72821;49.814;19.034;2023-10-09T15:49:03;12.63;;;8.60;;
22066;SDS011;72821;49.814;19.034;2023-10-09T15:54:05;15.57;;;10.20;;
22066;SDS011;72821;49.814;19.034;2023-10-09T15:59:11;14.63;;;9.77;;
22066;SDS011;72821;49.814;19.034;2023-10-09T16:04:13;16.10;;;10.68;;
22066;SDS011;72821;49.814;19.034;2023-10-09T16:09:17;17.58;;;11.10;;
22066;SDS011;72821;49.814;19.034;2023-10-09T16:14:22;17.80;;;11.95;;
22066;SDS011;72821;49.814;19.034;2023-10-09T16:19:25;17.92;;;12.30;;
22066;SDS011;72821;49.814;19.034;2023-10-09T16:24:32;19.42;;;12.25;;
22066;SDS011;72821;49.814;19.034;2023-10-09T16:29:40;19.15;;;12.13;;
22066;SDS011;72821;49.814;19.034;2023-10-09T16:34:50;19.70;;;12.98;;
22066;SDS011;72821;49.814;19.034;2023-10-09T16:39:52;19.10;;;12.55;;
22066;SDS011;72821;49.814;19.034;2023-10-09T16:45:00;22.40;;;14.50;;
22066;SDS011;72821;49.814;19.034;2023-10-09T16:50:10;21.90;;;13.88;;
22066;SDS011;72821;49.814;19.034;2023-10-09T16:55:13;21.10;;;15.32;;
22066;SDS011;72821;49.814;19.034;2023-10-09T17:00:17;23.85;;;15.70;;
22066;SDS011;72821;49.814;19.034;2023-10-09T17:05:30;25.75;;;17.17;;
22066;SDS011;72821;49.814;19.034;2023-10-09T17:10:37;24.10;;;16.17;;
22066;SDS011;72821;49.814;19.034;2023-10-09T17:15:47;26.77;;;17.02;;
22066;SDS011;72821;49.814;19.034;2023-10-09T17:20:54;24.73;;;16.55;;
22066;SDS011;72821;49.814;19.034;2023-10-09T17:26:01;21.98;;;14.60;;
22066;SDS011;72821;49.814;19.034;2023-10-09T17:31:04;21.67;;;14.27;;
22066;SDS011;72821;49.814;19.034;2023-10-09T17:36:06;19.77;;;13.43;;
22066;SDS011;72821;49.814;19.034;2023-10-09T17:41:09;17.20;;;11.43;;
22066;SDS011;72821;49.814;19.034;2023-10-09T17:46:11;20.40;;;13.27;;
22066;SDS011;72821;49.814;19.034;2023-10-09T17:51:13;16.38;;;11.52;;
22066;SDS011;72821;49.814;19.034;2023-10-09T17:56:20;18.27;;;10.60;;
22066;SDS011;72821;49.814;19.034;2023-10-09T18:01:27;14.80;;;10.38;;
22066;SDS011;72821;49.814;19.034;2023-10-09T18:06:31;14.00;;;9.25;;
22066;SDS011;72821;49.814;19.034;2023-10-09T18:11:36;14.10;;;9.05;;
22066;SDS011;72821;49.814;19.034;2023-10-09T18:16:38;11.65;;;8.60;;
22066;SDS011;72821;49.814;19.034;2023-10-09T18:21:44;13.32;;;9.02;;
22066;SDS011;72821;49.814;19.034;2023-10-09T18:26:47;14.27;;;9.52;;
22066;SDS011;72821;49.814;19.034;2023-10-09T18:31:49;14.60;;;10.00;;
22066;SDS011;72821;49.814;19.034;2023-10-09T18:36:51;15.75;;;10.32;;
22066;SDS011;72821;49.814;19.034;2023-10-09T18:41:54;17.98;;;10.93;;
22066;SDS011;72821;49.814;19.034;2023-10-09T18:46:56;16.75;;;10.98;;
22066;SDS011;72821;49.814;19.034;2023-10-09T18:52:00;15.43;;;10.82;;
22066;SDS011;72821;49.814;19.034;2023-10-09T18:57:02;17.55;;;10.85;;
22066;SDS011;72821;49.814;19.034;2023-10-09T19:02:04;19.20;;;11.63;;
22066;SDS011;72821;49.814;19.034;2023-10-09T19:07:09;18.83;;;11.25;;
22066;SDS011;72821;49.814;19.034;2023-10-09T19:12:12;20.25;;;12.73;;
22066;SDS011;72821;49.814;19.034;2023-10-09T19:17:15;17.58;;;11.88;;
22066;SDS011;72821;49.814;19.034;2023-10-09T19:22:20;19.77;;;12.73;;
22066;SDS011;72821;49.814;19.034;2023-10-09T19:27:23;22.17;;;13.93;;
22066;SDS011;72821;49.814;19.034;2023-10-09T19:32:27;26.50;;;15.10;;
22066;SDS011;72821;49.814;19.034;2023-10-09T19:37:30;27.52;;;16.13;;
22066;SDS011;72821;49.814;19.034;2023-10-09T19:42:32;27.35;;;15.95;;
22066;SDS011;72821;49.814;19.034;2023-10-09T19:47:34;28.10;;;16.58;;
22066;SDS011;72821;49.814;19.034;2023-10-09T19:52:39;23.75;;;14.98;;
22066;SDS011;72821;49.814;19.034;2023-10-09T19:57:42;23.45;;;14.63;;
22066;SDS011;72821;49.814;19.034;2023-10-09T20:02:45;19.98;;;12.82;;
22066;SDS011;72821;49.814;19.034;2023-10-09T20:07:47;23.20;;;13.18;;
22066;SDS011;72821;49.814;19.034;2023-10-09T20:12:50;24.00;;;14.18;;
22066;SDS011;72821;49.814;19.034;2023-10-09T20:17:54;40.17;;;23.70;;
22066;SDS011;72821;49.814;19.034;2023-10-09T20:22:56;51.20;;;27.33;;
22066;SDS011;72821;49.814;19.034;2023-10-09T20:27:58;54.47;;;29.25;;
22066;SDS011;72821;49.814;19.034;2023-10-09T20:33:00;52.58;;;28.75;;
22066;SDS011;72821;49.814;19.034;2023-10-09T20:38:03;51.70;;;27.92;;
22066;SDS011;72821;49.814;19.034;2023-10-09T20:43:05;50.10;;;27.30;;
22066;SDS011;72821;49.814;19.034;2023-10-09T20:48:07;54.88;;;28.80;;
22066;SDS011;72821;49.814;19.034;2023-10-09T20:53:10;52.97;;;27.75;;
22066;SDS011;72821;49.814;19.034;2023-10-09T20:58:15;53.03;;;27.63;;
22066;SDS011;72821;49.814;19.034;2023-10-09T21:03:17;55.80;;;29.55;;
22066;SDS011;72821;49.814;19.034;2023-10-09T21:08:21;52.35;;;27.65;;
22066;SDS011;72821;49.814;19.034;2023-10-09T21:13:23;51.65;;;27.02;;
22066;SDS011;72821;49.814;19.034;2023-10-09T21:18:25;55.03;;;28.52;;
22066;SDS011;72821;49.814;19.034;2023-10-09T21:23:28;53.20;;;28.13;;
22066;SDS011;72821;49.814;19.034;2023-10-09T21:28:33;49.60;;;26.90;;
22066;SDS011;72821;49.814;19.034;2023-10-09T21:33:38;53.88;;;25.63;;
22066;SDS011;72821;49.814;19.034;2023-10-09T21:38:40;54.97;;;27.23;;
22066;SDS011;72821;49.814;19.034;2023-10-09T21:43:45;60.15;;;27.23;;
22066;SDS011;72821;49.814;19.034;2023-10-09T21:48:48;58.92;;;27.77;;
22066;SDS011;72821;49.814;19.034;2023-10-09T21:53:50;60.95;;;28.20;;
22066;SDS011;72821;49.814;19.034;2023-10-09T21:58:52;63.35;;;30.00;;
22066;SDS011;72821;49.814;19.034;2023-10-09T22:03:54;57.90;;;27.88;;
22066;SDS011;72821;49.814;19.034;2023-10-09T22:08:57;60.58;;;27.83;;
22066;SDS011;72821;49.814;19.034;2023-10-09T22:13:59;58.72;;;28.58;;
22066;SDS011;72821;49.814;19.034;2023-10-09T22:19:01;64.82;;;29.75;;
22066;SDS011;72821;49.814;19.034;2023-10-09T22:24:15;58.10;;;27.25;;
22066;SDS011;72821;49.814;19.034;2023-10-09T22:29:20;57.40;;;27.95;;
22066;SDS011;72821;49.814;19.034;2023-10-09T22:34:22;60.92;;;26.90;;
22066;SDS011;72821;49.814;19.034;2023-10-09T22:39:24;56.28;;;26.52;;
22066;SDS011;72821;49.814;19.034;2023-10-09T22:44:34;58.28;;;27.85;;
22066;SDS011;72821;49.814;19.034;2023-10-09T22:49:40;57.83;;;26.60;;
22066;SDS011;72821;49.814;19.034;2023-10-09T22:54:45;49.45;;;24.25;;
22066;SDS011;72821;49.814;19.034;2023-10-09T22:59:51;48.38;;;23.13;;
22066;SDS011;72821;49.814;19.034;2023-10-09T23:04:53;47.08;;;22.33;;
22066;SDS011;72821;49.814;19.034;2023-10-09T23:10:05;47.90;;;22.15;;
22066;SDS011;72821;49.814;19.034;2023-10-09T23:15:18;42.55;;;20.98;;
22066;SDS011;72821;49.814;19.034;2023-10-09T23:20:36;41.80;;;19.35;;
22066;SDS011;72821;49.814;19.034;2023-10-09T23:25:51;39.95;;;19.02;;
22066;SDS011;72821;49.814;19.034;2023-10-09T23:30:56;44.65;;;19.38;;
22066;SDS011;72821;49.814;19.034;2023-10-09T23:35:58;37.03;;;17.88;;
22066;SDS011;72821;49.814;19.034;2023-10-09T23:41:07;36.88;;;17.88;;
22066;SDS011;72821;49.814;19.034;2023-10-09T23:46:13;38.90;;;18.70;;
22066;SDS011;72821;49.814;19.034;2023-10-09T23:51:19;39.38;;;18.40;;
22066;SDS011;72821;49.814;19.034;2023-10-09T23:56:21;41.20;;;18.90;;
